This is the latest recevied weather packets stored in our database for station/object KG7FOQ-13. If no packets are shown the sender has not sent any weather packets the latest 10 day(s).
| Time | Temp. | Humidity | Pressure | Rain* | Wind** | Luminosity | Snow |
|---|---|---|---|---|---|---|---|
| 1777800058 | 11.11° C | 46% | 1014.4 hPa | 0 mm | - | - | - |
| 1777799757 | 11.11° C | 47% | 1014.3 hPa | 0 mm | - | - | - |
| 1777799457 | 11.67° C | 46% | 1014.3 hPa | 0 mm | - | - | - |
| 1777799156 | 11.11° C | 48% | 1014.3 hPa | 0 mm | - | - | - |
| 1777798856 | 12.22° C | 44% | 1014.3 hPa | 0 mm | - | - | - |
| 1777798555 | 12.78° C | 43% | 1014.4 hPa | 0 mm | - | - | - |
| 1777798254 | 13.33° C | 39% | 1014.4 hPa | 0 mm | - | - | - |
| 1777797954 | 13.89° C | 36% | 1014.3 hPa | 0 mm | - | - | - |
| 1777797653 | 14.44° C | 32% | 1014.4 hPa | 0 mm | - | - | - |
| 1777797352 | 14.44° C | 35% | 1014.4 hPa | 0 mm | - | - | - |
| 1777797052 | 14.44° C | 33% | 1014.4 hPa | 0 mm | - | - | - |
| 1777796751 | 13.89° C | 33% | 1014.4 hPa | 0 mm | - | - | - |
| 1777796451 | 13.33° C | 36% | 1014.4 hPa | 0 mm | - | - | - |
| 1777796150 | 13.33° C | 38% | 1014.4 hPa | 0 mm | - | - | - |
| 1777795850 | 12.78° C | 38% | 1014.4 hPa | 0 mm | - | - | - |
| 1777795549 | 13.33° C | 36% | 1014.4 hPa | 0 mm | - | - | - |
| 1777795249 | 13.33° C | 38% | 1014.4 hPa | 0 mm | - | - | - |
| 1777794947 | 14.44° C | 30% | 1014.4 hPa | 0 mm | - | - | - |
| 1777794346 | 16.11° C | 26% | 1014.3 hPa | 0 mm | - | - | - |
| 1777794046 | 15.56° C | 25% | 1014.3 hPa | 0 mm | - | - | - |
| 1777793745 | 15° C | 28% | 1014.3 hPa | 0 mm | - | - | - |
| 1777793444 | 15.56° C | 26% | 1014.2 hPa | 0 mm | - | - | - |
| 1777793144 | 15.56° C | 28% | 1014.1 hPa | 0 mm | - | - | - |
| 1777792843 | 15° C | 29% | 1014.2 hPa | 0 mm | - | - | - |
| 1777792543 | 15.56° C | 30% | 1014.2 hPa | 0 mm | - | - | - |
* Rain latest hour (hover to see other rain measurements)
** Current wind speed in m/s (hover to see current wind gust speed)